Ashby, Minnesota
Current Conditions -  °F | °C
As of 4:16 PM on Saturday 25 Oct 2014 (Local Time) from KY63 Reporting Station
Clear Clear  
Wind Chill: 58°   Ceiling: Unl
Heat Index: 58°   Visibility: 10mi
Dew Point: 27°   Wind: 14mph
Humidity: 30%   Direction: 320°NW
Pressure: 30.08"   Gusts: NA
Location:  46.09°N, 95.82°W
Report Text: KY63 252116Z AUTO 32012KT 10SM CLR 15/M03 A3008 RMK AO2 T01461030
Loading
Personal Weather Stations






























Interactive Weather Map
Tropical Storm Tracking
New forecast layout! Learn more

10-Day Weather Forecast

Advertisements
Track Severe Weather on mobile